Česky Dansk Deutsch English Español Suomi Français Magyar Italiano Nederlands norsk Polski Português svenska Türkçe

 

Het Weer

Lappeenranta (Finland)

21:50, 19 augustus 2016 (GMT)

NWNNE
WE
SWSSE
Home            
Lappeenranta Utti Mikkeli Savonlinna Varkaus St. Peterburg Helsinki-Malmi Helsinki-Vantaa Joensuu Jyvaskyla Halli Kuopio Tampere / Pirkkala Viitasaari Tallinn Ahtari Tartu/Ulenurme Turku Seinajoki-Ilmajok Ilmajoki Pori Kauhava Parnu

Om een weerknop op uw website of weblog te plaatsen, copieer onderstaande code en plak die in uw pagina. In het eerste vakje staat HTML-code, in het tweede vakje UBB-code.


Add to Google

Details

Wind speed:1 bf, 3 kn, 1.5 m/s, 3.5 miles/h, 5.6 km/h
Wind direction:ESE, 110°
Visibility:Greater than 10000 m, 10 km, 32800 ft, 6.2 miles
Clouds:CAVOC
Temperature:15°C, 59°F
Dew-point:13°C, 55°F
Atmospheric pressure:1018 hPa, 763.6 mmHg, 30.06 inHg, 1.005 atm
Relative humidity:87.8 %
METAR:EFLP 192150Z AUTO 11003KT CAVOK 15/13 Q1018

Snelkoppelingen

Actuele weersinformatie van de hele wereld. Voeg locaties toe met het plus (+) symbool. Deze snelkoppelingen kunnen worden toegevoegd aan Google.

Lid van de Technetium groep

website free tracking
StatCounter NetStat W3C Validator

27-10-2020 02:22:34
astro.technetium.be money.technetium.be phote.technetium.be tafeltennistafel.technetium.be www.ligfiets.net